Airfield :







YOU CAN JOIN US ON...

 
LOGIN :

Register | Disclaimer

   EN    FR    IT 

 









Legend :    VFR   Marginal VFR   IFR   Intensive IFR   Very Intensive IFR
Visi :
Ceiling :
>= 8 km
>= 3000ft
5 to 8 km
1000 to 3000 ft
1500m to 5 km
500 to 1000 ft
800 to 1500m
200 to 500 ft
< 800m
< 200 ft
Symbols :   Thunderstorms  Fog  Heavy snow  Heavy precipitations  Wind > 20 kt







- Airport Elevation : 232 ft
- IATA code : YQM


CYQM - Greater Moncton International

CURRENT METAR :
  • 261800Z 27013G21KT 230V290 15SM FEW045 M01/M17 A3007 RMK CU1 CU TR SLP187

EXPIRED METARs :
  • 261700Z 25015KT 220V290 15SM FEW045 FEW250 M02/M16 A3008 RMK CU1CI1 CU TR SLP191
  • 261600Z 25013G19KT 15SM FEW045 M03/M14 A3010 RMK CU1 SLP198
  • 261500Z 30012G20KT 15SM BKN040 BKN250 M03/M14 A3011 RMK CU5CI1 CI TR SLP202

TAF TAF CYQM
Valid from the 26 at 18:00 until the 27 at 18:00 UTC


261738Z 2618/2718 30012G22KT P6SM SCT040
BECMG 2701/2703 30008KT
FM270900 30008KT P6SM FEW006
FM271300 30007KT P6SM SKC
BECMG 2715/2717 22007KT RMK NXT FCST BY 270000Z
CZQM FIR / North America



MET'MAP, your aeronautical weather chart ! - Copyright ORBIFLY December 2007 - Disclaimer

ORBIFLY MET'MAP TEAM :

Programming & Development : Alexandra Zaïnal
Concept & Development : Baudouin d'Aumeries
Co-Development & Prog : Marc-Olivier Méhu
Technical & hardware support : Manuel Goepfert

Contact : metmap@orbifly.com




SOURCES & CREDITS :

   NOAA